Time;durP1;ratioP1;P1;durP2;ratioP2;P2;SDS_P1;SDS_P2;PMS_P1;PMS_P2;Temp;Humidity;BMP_temperature;BMP_pressure;BME280_temperature;BME280_humidity;BME280_pressure;Samples;Min_cycle;Max_cycle;Signal;HPM_P1;HPM_P2
2023/02/17 00:00:12;;;;;;;65.10;25.75;;;;;;;;;;1033428;28;20493;-18
2023/02/17 00:00:43;;;;;;;50.08;27.13;;;;;;;;;;1037751;28;20028;-21
2023/02/17 00:01:16;;;;;;;69.43;27.35;;;;;;;;;;1037797;28;20075;-16
2023/02/17 00:01:46;;;;;;;47.60;24.20;;;;;;;;;;1033574;28;20019;-18
2023/02/17 00:02:17;;;;;;;66.93;26.70;;;;;;;;;;1033622;28;20045;-17
2023/02/17 00:02:47;;;;;;;78.53;24.90;;;;;;;;;;1037987;28;20025;-18
2023/02/17 00:03:17;;;;;;;63.97;25.33;;;;;;;;;;1037533;28;20021;-19
2023/02/17 00:03:49;;;;;;;59.10;30.05;;;;;;;;;;1037619;28;20499;-17
2023/02/17 00:04:19;;;;;;;73.35;30.05;;;;;;;;;;1037623;28;20028;-19
2023/02/17 00:04:51;;;;;;;63.40;27.77;;;;;;;;;;1037645;28;20492;-16
2023/02/17 00:05:22;;;;;;;55.38;25.60;;;;;;;;;;1036808;28;20022;-20
2023/02/17 00:05:52;;;;;;;53.22;26.40;;;;;;;;;;1037531;28;20021;-18
2023/02/17 00:06:24;;;;;;;56.55;26.38;;;;;;;;;;1037501;28;20026;-19
2023/02/17 00:06:55;;;;;;;73.57;26.88;;;;;;;;;;1037525;28;20027;-16
2023/02/17 00:07:30;;;;;;;61.10;24.25;;;;;;;;;;1037250;28;20034;-18
2023/02/17 00:08:00;;;;;;;64.72;28.38;;;;;;;;;;1036868;28;20037;-17
2023/02/17 00:08:31;;;;;;;74.40;29.80;;;;;;;;;;1037416;28;20029;-19
2023/02/17 00:09:02;;;;;;;46.50;24.13;;;;;;;;;;1037354;28;20034;-18
2023/02/17 00:09:32;;;;;;;52.90;22.98;;;;;;;;;;1037263;28;20052;-17
2023/02/17 00:10:03;;;;;;;52.13;23.17;;;;;;;;;;1037584;28;20492;-16
2023/02/17 00:10:33;;;;;;;60.10;27.00;;;;;;;;;;1037320;28;20013;-19
2023/02/17 00:11:04;;;;;;;44.83;21.38;;;;;;;;;;1037430;28;20083;-22
2023/02/17 00:11:34;;;;;;;66.53;28.17;;;;;;;;;;1037334;28;20076;-17
2023/02/17 00:12:05;;;;;;;63.67;24.35;;;;;;;;;;1037471;28;20123;-18
2023/02/17 00:12:35;;;;;;;63.33;26.77;;;;;;;;;;1037308;28;20025;-21
2023/02/17 00:13:06;;;;;;;51.88;29.15;;;;;;;;;;1037250;28;20029;-17
2023/02/17 00:13:36;;;;;;;56.25;26.02;;;;;;;;;;1037473;28;20033;-18
2023/02/17 00:14:08;;;;;;;59.05;25.52;;;;;;;;;;1037669;28;20052;-17
2023/02/17 00:14:39;;;;;;;74.80;26.95;;;;;;;;;;1037261;28;20036;-16
2023/02/17 00:15:09;;;;;;;63.85;25.23;;;;;;;;;;1037097;28;20036;-19
2023/02/17 00:15:40;;;;;;;63.35;29.42;;;;;;;;;;1037245;28;20390;-19
2023/02/17 00:16:14;;;;;;;66.30;24.55;;;;;;;;;;1037583;28;20026;-18
2023/02/17 00:16:44;;;;;;;52.72;25.48;;;;;;;;;;1036727;28;20076;-16
2023/02/17 00:17:15;;;;;;;74.47;28.67;;;;;;;;;;1037182;28;20601;-18
2023/02/17 00:17:45;;;;;;;49.45;27.00;;;;;;;;;;1037221;28;20084;-18
2023/02/17 00:18:16;;;;;;;55.22;29.02;;;;;;;;;;1037164;28;20080;-19
2023/02/17 00:18:47;;;;;;;75.35;24.73;;;;;;;;;;1033326;28;20027;-17
2023/02/17 00:19:23;;;;;;;70.93;25.75;;;;;;;;;;1033088;28;20540;-17
2023/02/17 00:19:56;;;;;;;57.70;24.70;;;;;;;;;;1033268;28;20040;-16
2023/02/17 00:20:27;;;;;;;71.47;26.73;;;;;;;;;;1034829;28;20034;-16
2023/02/17 00:20:57;;;;;;;68.18;28.10;;;;;;;;;;1037869;28;20056;-19
2023/02/17 00:21:29;;;;;;;59.90;25.45;;;;;;;;;;1037684;28;20032;-16
2023/02/17 00:22:00;;;;;;;49.10;24.55;;;;;;;;;;1037496;28;20026;-18
2023/02/17 00:22:31;;;;;;;62.85;24.15;;;;;;;;;;1037264;28;20049;-17
2023/02/17 00:23:01;;;;;;;58.17;25.35;;;;;;;;;;1037474;28;20026;-17
2023/02/17 00:23:32;;;;;;;50.83;26.45;;;;;;;;;;1037101;28;20025;-18
2023/02/17 00:24:02;;;;;;;55.45;24.23;;;;;;;;;;1037654;28;20065;-18
2023/02/17 00:24:33;;;;;;;59.50;27.15;;;;;;;;;;1037219;28;20132;-16
2023/02/17 00:25:04;;;;;;;54.88;26.13;;;;;;;;;;1037030;28;20435;-19
2023/02/17 00:25:36;;;;;;;79.97;28.70;;;;;;;;;;1037169;28;20041;-17
2023/02/17 00:26:07;;;;;;;65.90;26.60;;;;;;;;;;1036984;28;20504;-17
2023/02/17 00:26:37;;;;;;;46.67;24.83;;;;;;;;;;1037270;28;20026;-18
2023/02/17 00:27:09;;;;;;;83.20;28.30;;;;;;;;;;1037428;28;20025;-17
2023/02/17 00:27:39;;;;;;;69.65;27.88;;;;;;;;;;1037039;28;20128;-18
2023/02/17 00:28:10;;;;;;;58.83;28.10;;;;;;;;;;1037421;28;20532;-18
2023/02/17 00:28:40;;;;;;;57.47;23.65;;;;;;;;;;1037220;28;20473;-20
2023/02/17 00:29:10;;;;;;;63.35;29.27;;;;;;;;;;1037353;28;20428;-17
2023/02/17 00:29:41;;;;;;;51.50;26.45;;;;;;;;;;1037155;28;20120;-16
2023/02/17 00:30:11;;;;;;;63.83;27.38;;;;;;;;;;1037369;28;20438;-19
2023/02/17 00:30:42;;;;;;;49.58;24.50;;;;;;;;;;1036749;28;20030;-19
2023/02/17 00:31:14;;;;;;;47.53;26.05;;;;;;;;;;1037355;28;20026;-17
2023/02/17 00:31:44;;;;;;;61.05;30.38;;;;;;;;;;1036410;28;20392;-19
2023/02/17 00:32:15;;;;;;;84.18;29.05;;;;;;;;;;1037318;28;20024;-16
2023/02/17 00:32:45;;;;;;;76.68;32.08;;;;;;;;;;1037380;28;20407;-20
2023/02/17 00:33:16;;;;;;;55.95;27.35;;;;;;;;;;1037105;28;20500;-18
2023/02/17 00:33:46;;;;;;;59.83;27.23;;;;;;;;;;1037488;28;20462;-19
2023/02/17 00:34:17;;;;;;;66.72;29.02;;;;;;;;;;1037202;28;20050;-17
2023/02/17 00:34:47;;;;;;;62.10;28.17;;;;;;;;;;1037419;28;20049;-18
2023/02/17 00:35:18;;;;;;;68.28;28.58;;;;;;;;;;1037286;28;20032;-19
2023/02/17 00:35:48;;;;;;;61.47;24.25;;;;;;;;;;1037366;28;20025;-19
2023/02/17 00:36:19;;;;;;;55.97;24.15;;;;;;;;;;1036984;28;20028;-17
2023/02/17 00:36:49;;;;;;;79.07;29.58;;;;;;;;;;1037197;28;20572;-19
2023/02/17 00:37:20;;;;;;;65.55;26.15;;;;;;;;;;1037944;28;20029;-18
2023/02/17 00:37:50;;;;;;;61.10;27.17;;;;;;;;;;1037489;28;20105;-19
2023/02/17 00:38:20;;;;;;;56.53;22.67;;;;;;;;;;1037445;28;20109;-19
2023/02/17 00:38:52;;;;;;;58.00;28.58;;;;;;;;;;1037623;28;20116;-19
2023/02/17 00:39:23;;;;;;;64.05;30.20;;;;;;;;;;1037281;28;20022;-17
2023/02/17 00:39:53;;;;;;;72.68;28.23;;;;;;;;;;1033124;28;20065;-17
2023/02/17 00:40:24;;;;;;;45.65;23.15;;;;;;;;;;1033043;28;20074;-18
2023/02/17 00:40:54;;;;;;;78.20;29.48;;;;;;;;;;1033261;28;20109;-18
2023/02/17 00:41:27;;;;;;;48.83;23.20;;;;;;;;;;1033188;28;20449;-19
2023/02/17 00:41:58;;;;;;;56.72;28.63;;;;;;;;;;1037456;28;20032;-19
2023/02/17 00:42:28;;;;;;;52.15;25.17;;;;;;;;;;1037517;28;20033;-20
2023/02/17 00:42:59;;;;;;;60.75;30.45;;;;;;;;;;1037624;28;20497;-18
2023/02/17 00:43:29;;;;;;;55.15;28.30;;;;;;;;;;1037251;28;20021;-16
2023/02/17 00:43:59;;;;;;;60.38;29.58;;;;;;;;;;1037293;28;20057;-17
2023/02/17 00:44:30;;;;;;;53.17;24.48;;;;;;;;;;1037141;28;20041;-18
2023/02/17 00:45:00;;;;;;;59.60;30.35;;;;;;;;;;1036416;28;20493;-18
2023/02/17 00:45:31;;;;;;;72.78;30.98;;;;;;;;;;1037169;28;20100;-18
2023/02/17 00:46:02;;;;;;;75.80;30.30;;;;;;;;;;1037400;28;20026;-15
2023/02/17 00:46:33;;;;;;;76.00;31.67;;;;;;;;;;1037141;28;20037;-19
2023/02/17 00:47:03;;;;;;;80.00;31.50;;;;;;;;;;1037531;28;20026;-18
2023/02/17 00:47:34;;;;;;;75.43;30.38;;;;;;;;;;1037126;28;20389;-17
2023/02/17 00:48:04;;;;;;;59.33;29.35;;;;;;;;;;1037210;28;20060;-18
2023/02/17 00:48:35;;;;;;;59.38;30.00;;;;;;;;;;1037132;28;20095;-20
2023/02/17 00:49:05;;;;;;;59.33;27.15;;;;;;;;;;1037252;28;20022;-18
2023/02/17 00:49:36;;;;;;;61.28;27.88;;;;;;;;;;1036468;28;20545;-17
2023/02/17 00:50:07;;;;;;;66.25;29.40;;;;;;;;;;1036174;28;20492;-16
2023/02/17 00:50:37;;;;;;;71.68;28.85;;;;;;;;;;1037383;28;20025;-18
2023/02/17 00:51:08;;;;;;;47.15;25.30;;;;;;;;;;1037467;28;20126;-17
2023/02/17 00:51:38;;;;;;;54.88;26.52;;;;;;;;;;1037942;28;20037;-16
2023/02/17 00:52:09;;;;;;;68.82;27.35;;;;;;;;;;1037169;28;20432;-17
2023/02/17 00:52:39;;;;;;;56.78;28.63;;;;;;;;;;1037426;28;20025;-16
2023/02/17 00:53:10;;;;;;;50.80;26.88;;;;;;;;;;1036592;28;20122;-16
2023/02/17 00:53:40;;;;;;;51.92;24.95;;;;;;;;;;1037070;28;20104;-20
2023/02/17 00:54:11;;;;;;;56.95;26.48;;;;;;;;;;1037396;28;20060;-16
2023/02/17 00:54:42;;;;;;;64.55;28.50;;;;;;;;;;1037100;28;20035;-18
2023/02/17 00:55:12;;;;;;;65.30;32.70;;;;;;;;;;1037029;28;20025;-20
2023/02/17 00:55:43;;;;;;;65.60;30.83;;;;;;;;;;1036107;28;20022;-17
2023/02/17 00:56:13;;;;;;;54.72;29.35;;;;;;;;;;1036264;28;20029;-18
2023/02/17 00:56:44;;;;;;;64.13;26.83;;;;;;;;;;1037513;28;20301;-19
2023/02/17 00:57:14;;;;;;;57.78;25.48;;;;;;;;;;1036866;28;20033;-18
2023/02/17 00:57:45;;;;;;;68.45;27.10;;;;;;;;;;1037279;28;20057;-16
2023/02/17 00:58:15;;;;;;;53.13;25.33;;;;;;;;;;1037198;28;20168;-18
2023/02/17 00:58:46;;;;;;;62.00;26.15;;;;;;;;;;1037337;28;20056;-19
2023/02/17 00:59:16;;;;;;;56.63;24.92;;;;;;;;;;1036720;28;20026;-18
2023/02/17 00:59:47;;;;;;;70.57;32.72;;;;;;;;;;1037241;28;20021;-18
2023/02/17 01:00:17;;;;;;;65.15;28.33;;;;;;;;;;1037329;28;20026;-20
2023/02/17 01:00:48;;;;;;;55.08;24.02;;;;;;;;;;1037406;28;20026;-17
2023/02/17 01:01:18;;;;;;;53.13;24.58;;;;;;;;;;1036833;28;20496;-18
2023/02/17 01:01:49;;;;;;;40.13;21.73;;;;;;;;;;1037039;28;20022;-18
2023/02/17 01:02:19;;;;;;;49.15;21.10;;;;;;;;;;1037144;28;20597;-20
2023/02/17 01:02:50;;;;;;;36.40;20.00;;;;;;;;;;1037466;28;20017;-17
2023/02/17 01:03:20;;;;;;;52.20;22.98;;;;;;;;;;1036893;28;20018;-17
2023/02/17 01:03:51;;;;;;;41.40;22.05;;;;;;;;;;1037390;28;20029;-17
2023/02/17 01:04:21;;;;;;;39.42;20.70;;;;;;;;;;1037128;28;20030;-18
2023/02/17 01:04:52;;;;;;;56.50;24.90;;;;;;;;;;1037249;28;20022;-20
2023/02/17 01:05:22;;;;;;;54.47;21.85;;;;;;;;;;1037266;28;20030;-20
2023/02/17 01:05:53;;;;;;;36.35;23.13;;;;;;;;;;1037077;28;20018;-17
2023/02/17 01:06:25;;;;;;;43.40;19.55;;;;;;;;;;1037499;28;20026;-18
2023/02/17 01:06:55;;;;;;;48.70;23.20;;;;;;;;;;1037297;28;20477;-17
2023/02/17 01:07:26;;;;;;;61.30;23.08;;;;;;;;;;1037311;28;20032;-18
2023/02/17 01:07:56;;;;;;;55.40;21.52;;;;;;;;;;1037388;28;20034;-16
2023/02/17 01:08:27;;;;;;;47.15;21.10;;;;;;;;;;1037319;28;20017;-17
2023/02/17 01:08:57;;;;;;;49.03;24.00;;;;;;;;;;1037626;28;20028;-20
2023/02/17 01:09:27;;;;;;;49.97;24.13;;;;;;;;;;1036701;28;20030;-19
2023/02/17 01:09:58;;;;;;;47.72;21.90;;;;;;;;;;1036934;28;20120;-19
2023/02/17 01:10:28;;;;;;;42.70;21.30;;;;;;;;;;1036620;28;20024;-16
2023/02/17 01:10:59;;;;;;;56.75;25.55;;;;;;;;;;1036476;28;20025;-16
2023/02/17 01:11:30;;;;;;;66.32;27.05;;;;;;;;;;1036785;28;20026;-18
2023/02/17 01:12:01;;;;;;;39.17;19.27;;;;;;;;;;1037251;28;20124;-17
2023/02/17 01:12:31;;;;;;;56.38;21.73;;;;;;;;;;1036957;28;20030;-18
2023/02/17 01:13:02;;;;;;;58.22;25.17;;;;;;;;;;1037262;28;20037;-17
2023/02/17 01:13:32;;;;;;;46.65;22.00;;;;;;;;;;1037124;28;20022;-17
2023/02/17 01:14:05;;;;;;;52.38;24.35;;;;;;;;;;1037260;28;20057;-16
2023/02/17 01:14:35;;;;;;;39.00;19.75;;;;;;;;;;1037010;28;20018;-16
2023/02/17 01:15:06;;;;;;;40.97;21.80;;;;;;;;;;1037026;28;20039;-16
2023/02/17 01:15:37;;;;;;;47.50;23.13;;;;;;;;;;1036274;28;20037;-20
2023/02/17 01:16:15;;;;;;;51.70;26.20;;;;;;;;;;1037392;28;20033;-18
2023/02/17 01:16:46;;;;;;;48.33;23.45;;;;;;;;;;1036583;28;20387;-17
2023/02/17 01:17:17;;;;;;;64.95;25.05;;;;;;;;;;1036540;28;20097;-19
2023/02/17 01:17:47;;;;;;;42.55;22.13;;;;;;;;;;1036187;28;20034;-19
2023/02/17 01:18:19;;;;;;;53.67;25.45;;;;;;;;;;1036778;28;20040;-18
2023/02/17 01:18:50;;;;;;;50.28;24.92;;;;;;;;;;1033035;28;20029;-20
2023/02/17 01:19:20;;;;;;;34.08;20.08;;;;;;;;;;1032653;28;20490;-21
2023/02/17 01:19:51;;;;;;;58.08;24.38;;;;;;;;;;1032845;28;20021;-17
2023/02/17 01:20:21;;;;;;;58.28;26.20;;;;;;;;;;1032909;28;20461;-16
2023/02/17 01:20:52;;;;;;;38.90;23.63;;;;;;;;;;1037058;28;20611;-18
2023/02/17 01:21:23;;;;;;;52.20;22.23;;;;;;;;;;1037101;28;20067;-17
2023/02/17 01:21:54;;;;;;;57.00;29.95;;;;;;;;;;1036676;28;20481;-18
2023/02/17 01:22:24;;;;;;;50.13;24.42;;;;;;;;;;1036158;28;20030;-19
2023/02/17 01:22:55;;;;;;;42.67;22.33;;;;;;;;;;1036183;28;20030;-20
2023/02/17 01:23:25;;;;;;;48.25;22.48;;;;;;;;;;1036937;28;20411;-17
2023/02/17 01:23:56;;;;;;;44.47;25.38;;;;;;;;;;1037107;28;20026;-18
2023/02/17 01:24:27;;;;;;;72.22;24.98;;;;;;;;;;1037239;28;20022;-19
2023/02/17 01:24:57;;;;;;;60.65;25.85;;;;;;;;;;1036962;28;20046;-17
2023/02/17 01:25:28;;;;;;;69.85;26.05;;;;;;;;;;1035024;28;20490;-16
2023/02/17 01:25:58;;;;;;;56.55;26.42;;;;;;;;;;1036725;28;20113;-17
2023/02/17 01:26:29;;;;;;;63.95;24.05;;;;;;;;;;1036676;28;20033;-20
2023/02/17 01:27:00;;;;;;;59.88;26.98;;;;;;;;;;1036818;28;20028;-20
2023/02/17 01:27:31;;;;;;;55.05;27.92;;;;;;;;;;1032207;28;20037;-18
2023/02/17 01:28:01;;;;;;;44.50;24.23;;;;;;;;;;1032634;28;20030;-18
2023/02/17 01:28:32;;;;;;;72.32;26.05;;;;;;;;;;1032444;28;20022;-19
2023/02/17 01:29:03;;;;;;;65.97;29.20;;;;;;;;;;1032601;28;20042;-19
2023/02/17 01:29:33;;;;;;;57.97;24.42;;;;;;;;;;1037062;28;20034;-17
2023/02/17 01:30:04;;;;;;;50.00;26.63;;;;;;;;;;1037836;28;20091;-18
2023/02/17 01:30:34;;;;;;;57.17;24.20;;;;;;;;;;1036454;28;20029;-16
2023/02/17 01:31:06;;;;;;;63.17;24.55;;;;;;;;;;1036326;28;20033;-20
2023/02/17 01:31:38;;;;;;;57.13;25.23;;;;;;;;;;1036921;28;20026;-18
2023/02/17 01:32:09;;;;;;;53.90;26.42;;;;;;;;;;1037750;28;20070;-17
2023/02/17 01:32:39;;;;;;;62.60;23.13;;;;;;;;;;1037589;28;20071;-19
2023/02/17 01:33:10;;;;;;;40.15;20.83;;;;;;;;;;1037926;28;20025;-17
2023/02/17 01:33:40;;;;;;;52.20;23.67;;;;;;;;;;1036071;28;20490;-18
2023/02/17 01:34:11;;;;;;;52.42;24.90;;;;;;;;;;1036576;28;20393;-19
2023/02/17 01:34:41;;;;;;;60.90;24.95;;;;;;;;;;1036339;28;20025;-17
2023/02/17 01:35:13;;;;;;;47.53;24.65;;;;;;;;;;1035918;28;20025;-17
2023/02/17 01:35:44;;;;;;;69.32;25.52;;;;;;;;;;1032823;28;20481;-16
2023/02/17 01:36:15;;;;;;;45.40;21.90;;;;;;;;;;1031943;28;20032;-17
2023/02/17 01:36:47;;;;;;;49.10;26.23;;;;;;;;;;1030326;28;20483;-19
2023/02/17 01:37:17;;;;;;;51.42;26.42;;;;;;;;;;1027648;28;20081;-17
2023/02/17 01:37:48;;;;;;;67.95;25.58;;;;;;;;;;1031715;28;20523;-19
2023/02/17 01:38:18;;;;;;;54.88;25.58;;;;;;;;;;1031733;28;20478;-16
2023/02/17 01:38:49;;;;;;;41.75;20.40;;;;;;;;;;1033313;28;20076;-21
2023/02/17 01:39:19;;;;;;;68.03;23.85;;;;;;;;;;1034881;28;20497;-18
2023/02/17 01:39:50;;;;;;;55.90;22.20;;;;;;;;;;1036282;28;20018;-16
2023/02/17 01:40:20;;;;;;;54.67;23.00;;;;;;;;;;1037357;28;20029;-20
2023/02/17 01:40:51;;;;;;;64.50;23.10;;;;;;;;;;1036472;28;20034;-16
2023/02/17 01:41:25;;;;;;;44.25;23.75;;;;;;;;;;1031718;28;20063;-18
2023/02/17 01:41:56;;;;;;;57.10;26.15;;;;;;;;;;1031386;28;20041;-20
2023/02/17 01:42:26;;;;;;;48.00;24.88;;;;;;;;;;1032070;28;20026;-18
2023/02/17 01:42:57;;;;;;;39.53;21.63;;;;;;;;;;1033118;28;20022;-18
2023/02/17 01:43:27;;;;;;;50.88;24.75;;;;;;;;;;1036075;28;20036;-19
2023/02/17 01:44:10;;;;;;;52.05;23.88;;;;;;;;;;1037380;28;20022;-19
2023/02/17 01:44:59;;;;;;;33.30;19.83;;;;;;;;;;1036256;28;20018;-19
2023/02/17 01:45:34;;;;;;;49.78;23.88;;;;;;;;;;1035278;28;20108;-17
2023/02/17 01:46:05;;;;;;;58.33;25.50;;;;;;;;;;1037031;28;20061;-19
2023/02/17 01:46:36;;;;;;;51.33;22.90;;;;;;;;;;1036591;28;20112;-17
2023/02/17 01:47:12;;;;;;;41.13;22.17;;;;;;;;;;1037453;28;20120;-19
2023/02/17 01:47:51;;;;;;;61.00;24.95;;;;;;;;;;1036011;28;20509;-19
2023/02/17 01:48:28;;;;;;;42.28;21.75;;;;;;;;;;1036748;28;20059;-19
2023/02/17 01:48:58;;;;;;;68.30;31.20;;;;;;;;;;1036248;28;20029;-18
2023/02/17 01:49:29;;;;;;;57.20;24.63;;;;;;;;;;1035092;28;20024;-18
2023/02/17 01:49:59;;;;;;;59.78;28.08;;;;;;;;;;1036316;28;20025;-19
2023/02/17 01:50:34;;;;;;;72.63;27.38;;;;;;;;;;1036491;28;20025;-18
2023/02/17 01:51:08;;;;;;;52.30;24.20;;;;;;;;;;1036713;28;20085;-19
2023/02/17 01:51:39;;;;;;;58.47;31.75;;;;;;;;;;1032555;28;20026;-18
2023/02/17 01:52:21;;;;;;;75.15;32.08;;;;;;;;;;1031902;28;20030;-21
2023/02/17 01:52:53;;;;;;;70.43;27.45;;;;;;;;;;1032341;28;20025;-16
2023/02/17 01:53:27;;;;;;;74.97;31.58;;;;;;;;;;1033836;28;20022;-18
2023/02/17 01:54:01;;;;;;;66.78;29.45;;;;;;;;;;1033080;28;20033;-20
2023/02/17 01:54:37;;;;;;;69.95;26.13;;;;;;;;;;1030664;28;20046;-16
2023/02/17 01:55:09;;;;;;;75.13;29.25;;;;;;;;;;1033513;28;20476;-17
2023/02/17 01:55:41;;;;;;;55.85;24.75;;;;;;;;;;1028754;28;20037;-16
2023/02/17 01:56:13;;;;;;;73.40;28.20;;;;;;;;;;1032794;28;20034;-16
2023/02/17 01:56:46;;;;;;;70.57;30.52;;;;;;;;;;1031718;28;20033;-19
2023/02/17 01:57:18;;;;;;;61.78;29.30;;;;;;;;;;1031739;28;20026;-16
2023/02/17 01:57:49;;;;;;;56.13;24.85;;;;;;;;;;1035387;28;20026;-17
2023/02/17 01:58:22;;;;;;;61.67;25.70;;;;;;;;;;1036815;28;20401;-17
2023/02/17 01:58:54;;;;;;;74.13;31.25;;;;;;;;;;1032916;28;20440;-21
2023/02/17 01:59:25;;;;;;;70.65;30.58;;;;;;;;;;1031884;28;20065;-17
2023/02/17 01:59:57;;;;;;;74.40;30.55;;;;;;;;;;1029863;28;20030;-18
2023/02/17 02:00:31;;;;;;;65.13;31.65;;;;;;;;;;1025649;28;20394;-22
2023/02/17 02:01:04;;;;;;;58.70;29.92;;;;;;;;;;1025700;28;20031;-20
2023/02/17 02:01:35;;;;;;;73.45;33.00;;;;;;;;;;1026802;28;20023;-17
2023/02/17 02:02:05;;;;;;;84.45;34.53;;;;;;;;;;1028803;28;20031;-17
2023/02/17 02:02:36;;;;;;;74.30;33.92;;;;;;;;;;1033350;28;20116;-17
2023/02/17 02:03:08;;;;;;;69.22;32.28;;;;;;;;;;1032992;28;20025;-18
2023/02/17 02:03:38;;;;;;;77.30;35.28;;;;;;;;;;1037434;28;20072;-16
2023/02/17 02:04:09;;;;;;;67.25;32.47;;;;;;;;;;1031672;28;20041;-18
2023/02/17 02:04:42;;;;;;;68.00;30.73;;;;;;;;;;1033300;28;20037;-18
2023/02/17 02:05:15;;;;;;;82.15;32.83;;;;;;;;;;1031001;28;20017;-18
2023/02/17 02:05:46;;;;;;;77.53;34.63;;;;;;;;;;1031870;28;20549;-19
2023/02/17 02:06:19;;;;;;;75.43;34.55;;;;;;;;;;1036200;28;20026;-18
2023/02/17 02:06:49;;;;;;;78.38;36.58;;;;;;;;;;1037459;28;20025;-18
2023/02/17 02:07:25;;;;;;;91.80;35.40;;;;;;;;;;1038390;28;20564;-19
2023/02/17 02:07:55;;;;;;;73.97;36.85;;;;;;;;;;1036809;28;20030;-17
2023/02/17 02:08:28;;;;;;;85.53;34.83;;;;;;;;;;1036906;28;20745;-18
2023/02/17 02:08:59;;;;;;;79.75;36.92;;;;;;;;;;1037409;28;20397;-20
2023/02/17 02:09:33;;;;;;;79.97;39.08;;;;;;;;;;1032047;28;20030;-19
2023/02/17 02:10:04;;;;;;;84.53;39.63;;;;;;;;;;1033267;28;20057;-17
2023/02/17 02:10:35;;;;;;;71.32;34.88;;;;;;;;;;1034195;28;20018;-19
2023/02/17 02:11:05;;;;;;;93.43;38.58;;;;;;;;;;1033752;28;20401;-18
2023/02/17 02:11:36;;;;;;;100.88;38.47;;;;;;;;;;1037206;28;20050;-17
2023/02/17 02:12:20;;;;;;;90.03;40.58;;;;;;;;;;1036880;28;20560;-17
2023/02/17 02:12:51;;;;;;;84.05;33.25;;;;;;;;;;1037206;28;20021;-17
2023/02/17 02:13:22;;;;;;;77.30;36.55;;;;;;;;;;1036468;28;20030;-17
2023/02/17 02:13:52;;;;;;;86.40;41.17;;;;;;;;;;1036760;28;20053;-17
2023/02/17 02:14:23;;;;;;;101.10;35.40;;;;;;;;;;1030981;28;20054;-18
2023/02/17 02:14:57;;;;;;;72.00;34.90;;;;;;;;;;1033880;28;20030;-16
2023/02/17 02:15:30;;;;;;;79.50;38.22;;;;;;;;;;1031683;28;20030;-19
2023/02/17 02:16:22;;;;;;;97.28;44.78;;;;;;;;;;1034239;28;20069;-19
2023/02/17 02:17:15;;;;;;;84.80;37.58;;;;;;;;;;1035535;28;20401;-18
2023/02/17 02:17:50;;;;;;;68.32;35.38;;;;;;;;;;1036107;28;20025;-18
2023/02/17 02:18:45;;;;;;;81.95;36.60;;;;;;;;;;1029387;28;20041;-17
2023/02/17 02:19:31;;;;;;;92.45;40.67;;;;;;;;;;1023523;28;20118;-20
2023/02/17 02:20:13;;;;;;;88.03;39.30;;;;;;;;;;1031518;28;20033;-20
2023/02/17 02:20:56;;;;;;;78.72;40.53;;;;;;;;;;1035632;28;20104;-18
2023/02/17 02:21:42;;;;;;;121.35;40.97;;;;;;;;;;1035525;28;20469;-19
2023/02/17 02:22:28;;;;;;;96.85;42.90;;;;;;;;;;1036492;28;20064;-22
2023/02/17 02:23:12;;;;;;;81.63;39.28;;;;;;;;;;1036159;28;20072;-17
2023/02/17 02:23:57;;;;;;;104.22;43.25;;;;;;;;;;1037621;28;20033;-18
2023/02/17 02:24:31;;;;;;;114.85;49.85;;;;;;;;;;1037353;28;20026;-18
2023/02/17 02:25:16;;;;;;;132.75;56.67;;;;;;;;;;1036150;28;20423;-18
2023/02/17 02:26:01;;;;;;;139.40;60.90;;;;;;;;;;1034973;28;20072;-19
2023/02/17 02:26:31;;;;;;;117.72;49.70;;;;;;;;;;1037262;28;20026;-17
2023/02/17 02:27:05;;;;;;;173.18;66.95;;;;;;;;;;1036860;28;20017;-18
2023/02/17 02:27:49;;;;;;;131.82;56.92;;;;;;;;;;1035581;28;20033;-18
2023/02/17 02:28:27;;;;;;;129.32;52.15;;;;;;;;;;1036150;28;20036;-20
2023/02/17 02:29:10;;;;;;;140.75;57.53;;;;;;;;;;1031323;28;20022;-16
2023/02/17 02:29:56;;;;;;;118.72;49.33;;;;;;;;;;1031881;28;20034;-19
2023/02/17 02:30:38;;;;;;;124.43;52.88;;;;;;;;;;1032453;28;20081;-18
2023/02/17 02:31:08;;;;;;;153.65;56.60;;;;;;;;;;1036305;28;20022;-19
2023/02/17 02:32:05;;;;;;;145.63;65.05;;;;;;;;;;1036397;28;20033;-21
2023/02/17 02:32:35;;;;;;;122.10;56.53;;;;;;;;;;1025201;28;20041;-16
2023/02/17 02:33:15;;;;;;;135.63;57.10;;;;;;;;;;1027510;28;20033;-16
2023/02/17 02:33:50;;;;;;;128.30;55.47;;;;;;;;;;1036267;28;20072;-20
2023/02/17 02:34:44;;;;;;;140.38;56.80;;;;;;;;;;1036420;28;20033;-19
2023/02/17 02:35:26;;;;;;;107.78;55.05;;;;;;;;;;1021374;28;20455;-18
2023/02/17 02:36:01;;;;;;;123.45;54.58;;;;;;;;;;1037138;28;20024;-18
2023/02/17 02:36:45;;;;;;;112.55;45.38;;;;;;;;;;1035484;28;20048;-18
2023/02/17 02:37:42;;;;;;;111.85;47.67;;;;;;;;;;1036023;28;20393;-19
2023/02/17 02:38:26;;;;;;;108.13;47.40;;;;;;;;;;1029785;28;20522;-22
2023/02/17 02:39:09;;;;;;;120.20;54.63;;;;;;;;;;1031468;28;20057;-18
2023/02/17 02:39:43;;;;;;;105.20;47.08;;;;;;;;;;1032053;28;20081;-19
2023/02/17 02:40:14;;;;;;;122.43;56.85;;;;;;;;;;1032621;28;20595;-18
2023/02/17 02:40:48;;;;;;;143.30;55.25;;;;;;;;;;1035118;28;20424;-19
2023/02/17 02:41:28;;;;;;;119.85;52.58;;;;;;;;;;1036591;28;20084;-19
2023/02/17 02:42:01;;;;;;;94.88;47.17;;;;;;;;;;1035809;28;20445;-21
2023/02/17 02:42:33;;;;;;;130.70;50.72;;;;;;;;;;1032518;28;20076;-20
2023/02/17 02:43:04;;;;;;;111.10;56.17;;;;;;;;;;1033197;28;20037;-18
2023/02/17 02:43:36;;;;;;;126.75;51.38;;;;;;;;;;1032305;28;20049;-20
2023/02/17 02:44:08;;;;;;;124.10;48.33;;;;;;;;;;1027462;28;20479;-18
2023/02/17 02:44:39;;;;;;;101.55;45.88;;;;;;;;;;1031784;28;20612;-18
2023/02/17 02:45:12;;;;;;;129.02;55.47;;;;;;;;;;1028780;28;20027;-17
2023/02/17 02:45:42;;;;;;;121.55;53.40;;;;;;;;;;1027032;28;20042;-19
2023/02/17 02:46:13;;;;;;;126.15;57.22;;;;;;;;;;1030086;28;20173;-18
2023/02/17 02:46:43;;;;;;;131.50;57.47;;;;;;;;;;1031067;28;20694;-16
2023/02/17 02:47:29;;;;;;;129.23;52.55;;;;;;;;;;1034787;28;20107;-16
2023/02/17 02:48:01;;;;;;;99.10;49.50;;;;;;;;;;1033910;28;20802;-18
2023/02/17 02:48:32;;;;;;;143.02;55.55;;;;;;;;;;1029577;28;20767;-17
2023/02/17 02:49:03;;;;;;;117.72;50.70;;;;;;;;;;1031724;28;20030;-18
2023/02/17 02:49:36;;;;;;;144.82;59.67;;;;;;;;;;1030988;28;20029;-17
2023/02/17 02:50:08;;;;;;;141.68;58.33;;;;;;;;;;1028903;28;20027;-20
2023/02/17 02:50:47;;;;;;;142.10;57.78;;;;;;;;;;1029534;28;20093;-19
2023/02/17 02:51:37;;;;;;;103.67;46.77;;;;;;;;;;1030354;28;20049;-18
2023/02/17 02:52:35;;;;;;;126.90;52.65;;;;;;;;;;1030713;28;20273;-18
2023/02/17 02:53:22;;;;;;;115.82;50.17;;;;;;;;;;1027760;28;20506;-21
2023/02/17 02:53:56;;;;;;;;;;;;;;;;;;1031211;28;20403;-16
2023/02/17 02:54:46;;;;;;;101.03;45.53;;;;;;;;;;1030869;28;19968;-20
2023/02/17 02:55:22;;;;;;;93.75;42.08;;;;;;;;;;1028056;28;20785;-20
2023/02/17 02:55:57;;;;;;;76.72;41.58;;;;;;;;;;1028699;28;20026;-19
2023/02/17 02:56:37;;;;;;;86.53;36.55;;;;;;;;;;1034331;28;21200;-18
2023/02/17 02:57:27;;;;;;;93.28;42.78;;;;;;;;;;1032009;28;20899;-18
2023/02/17 02:58:18;;;;;;;76.93;34.15;;;;;;;;;;1029267;28;20596;-19
2023/02/17 02:59:07;;;;;;;93.50;43.25;;;;;;;;;;1029099;28;20092;-18
2023/02/17 02:59:44;;;;;;;85.53;38.55;;;;;;;;;;1028447;28;20034;-19
2023/02/17 03:00:36;;;;;;;99.65;48.42;;;;;;;;;;1023627;28;20027;-16
2023/02/17 03:01:27;;;;;;;124.30;49.85;;;;;;;;;;1023978;28;20035;-16
2023/02/17 03:02:11;;;;;;;78.88;41.40;;;;;;;;;;1023119;28;20679;-19
2023/02/17 03:02:51;;;;;;;80.72;37.45;;;;;;;;;;1026607;28;20049;-17
2023/02/17 03:03:25;;;;;;;84.28;41.78;;;;;;;;;;1026208;28;20138;-20
2023/02/17 03:04:04;;;;;;;91.25;41.38;;;;;;;;;;1025484;28;20038;-19
2023/02/17 03:04:55;;;;;;;100.88;39.40;;;;;;;;;;1026908;28;20038;-22
2023/02/17 03:06:12;;;;;;;73.93;39.85;;;;;;;;;;1024139;28;20066;-18
2023/02/17 03:07:26;;;;;;;78.72;39.22;;;;;;;;;;1032961;28;20092;-17
2023/02/17 03:08:26;;;;;;;92.50;39.83;;;;;;;;;;1028316;28;21137;-17
2023/02/17 03:09:06;;;;;;;77.50;37.92;;;;;;;;;;1031298;28;20469;-18
2023/02/17 03:09:54;;;;;;;78.75;33.85;;;;;;;;;;1034534;28;20044;-20
2023/02/17 03:10:33;;;;;;;92.50;40.55;;;;;;;;;;1030590;28;20030;-17
2023/02/17 03:11:08;;;;;;;70.13;35.00;;;;;;;;;;1030261;28;20098;-18
2023/02/17 03:11:44;;;;;;;72.10;31.02;;;;;;;;;;1028264;28;20046;-20
2023/02/17 03:12:20;;;;;;;65.93;32.13;;;;;;;;;;1027789;28;20577;-19
2023/02/17 03:12:57;;;;;;;70.43;35.53;;;;;;;;;;1032807;28;20155;-17
2023/02/17 03:13:38;;;;;;;85.25;32.10;;;;;;;;;;1028394;28;20026;-20
2023/02/17 03:14:12;;;;;;;;;;;;;;;;;;1026016;28;20031;-19
2023/02/17 03:14:53;;;;;;;76.35;32.67;;;;;;;;;;1022358;28;19921;-19
2023/02/17 03:16:01;;;;;;;98.78;37.28;;;;;;;;;;1030965;28;20033;-19
2023/02/17 03:16:39;;;;;;;76.53;32.33;;;;;;;;;;1031346;28;20030;-20
2023/02/17 03:17:37;;;;;;;75.97;30.60;;;;;;;;;;1028116;28;20077;-19